Peotone Weather

Nearby METAR Reports

 

KIGQ - Lansing, Illinois, USA
Distance from station: NE 19mi, 30km
Updated: Tue, 20-Feb-2018 11:15pm CST
Rain, Overcast
Rain, Overcast
 Wind from NW
Wind: NW 9 mph , 15 km/h
Temperature: 36°F , 2°C
Wind Chill: 29°F , -2°C
Dew Point: 36°F , 2°C
Humidity: 100%
Barometer: 30.15 inHg , 1021 hPa
Summary: Rain
Clouds: Overcast
Visibility: 5 miles , 8 km
Cloud details: Partly cloudy 900 ft
Mostly cloudy 2900 ft
Overcast 8000 ft
2018/02/21 05:15 KIGQ 210515Z AUTO 32008KT 5SM RA SCT009 BKN029 OVC080 02/02 A3015 RMK AO2 P0002 T00190017
KIKK - Kankakee, Illinois, USA
Distance from station: S 19mi, 30km
Updated: Tue, 20-Feb-2018 11:15pm CST
Rain, Overcast
Rain, Overcast
 Wind from NW
Wind: NW 10 mph , 17 km/h
Temperature: 34°F , 1°C
Wind Chill: 26°F , -3°C
Dew Point: 34°F , 1°C
Humidity: 100%
Barometer: 30.15 inHg , 1021 hPa
Summary: Rain
Clouds: Overcast
Visibility: 7 miles , 11 km
Cloud details: Overcast 700 ft
2018/02/21 05:15 KIKK 210515Z AUTO 32009KT 7SM RA OVC007 01/01 A3015 RMK AO2 P0003 T00120010
 
KSJC - Joliet, Illinois, USA
Distance from station: WNW 24mi, 38km
Updated: Tue, 20-Feb-2018 10:53pm CST
Partly cloudy
Partly cloudy
 Wind from SW
Wind: SW 3 mph , 6 km/h
Temperature: 46°F , 8°C
Dew Point: 32°F , 0°C
Humidity: 57%
Barometer: 30.22 inHg , 1023.4 hPa
Clouds: Partly cloudy
Visibility: 10 miles , 16 km
Cloud details: Few Clouds 2800 ft
Partly cloudy 9500 ft
2018/02/21 04:53 KSJC 210453Z 23003KT 10SM FEW028 SCT095 08/00 A3022 RMK AO2 SLP234 T00830000
KLOT - Romeoville, Illinois, USA
Distance from station: NW 26mi, 41km
Updated: Tue, 20-Feb-2018 11:15pm CST
Overcast
Overcast
 Wind from NNW
Wind: NNW 10 mph , 17 km/h
Temperature: 32°F , 0°C
Wind Chill: 24°F , -4°C
Dew Point: 32°F , 0°C
Humidity: 100%
Barometer: 30.16 inHg , 1021.3 hPa
Clouds: Overcast
Visibility: 4 miles , 6 km
Cloud details: Partly cloudy 700 ft
Partly cloudy 1300 ft
Overcast 4100 ft
2018/02/21 05:15 KLOT 210515Z AUTO 33009KT 4SM UP SCT007 SCT013 OVC041 00/00 A3016 RMK AO2 T00011005
 
KMDW - Midway Airport Chicago, Illinois, USA
Distance from station: N 31mi, 50km
Updated: Tue, 20-Feb-2018 11:03pm CST
Light rain, Mist, Overcast
Light rain, Mist, Overcast
 Wind from WNW
Wind: WNW 10 mph , 17 km/h
Temperature: 36°F , 2°C
Wind Chill: 29°F , -2°C
Dew Point: 34°F , 1°C
Humidity: 93%
Barometer: 30.15 inHg , 1021 hPa
Summary: Light rain, Mist
Clouds: Overcast
Visibility: 2 miles , 3 km
Cloud details: Few Clouds 900 ft
Partly cloudy 1400 ft
Overcast 3600 ft
2018/02/21 05:03 KMDW 210503Z 30009KT 2SM -RA BR FEW009 SCT014 OVC036 02/01 A3015 RMK AO2 P0002 T00170006
KC09 - Morris, Illinois, USA
Distance from station: W 34mi, 54km
Updated: Tue, 20-Feb-2018 11:15pm CST
Overcast
Overcast
 Wind from NNW
Wind: NNW 8 mph , 13 km/h
Temperature: 32°F , 0°C
Wind Chill: 25°F , -4°C
Dew Point: 32°F , 0°C
Humidity: 100%
Barometer: 30.18 inHg , 1022 hPa
Clouds: Overcast
Visibility: 4 miles , 6 km
Cloud details: Overcast 700 ft
2018/02/21 05:15 KC09 210515Z AUTO 33007KT 4SM UP OVC007 00/00 A3018 RMK AO2 P0002 T00011003

Metar display script from Saratoga-Weather.org